createdAt,value
2017-12-31T00:00:02.717Z,11.90
2017-12-31T00:02:30.193Z,11.80
2017-12-31T00:04:59.158Z,11.80
2017-12-31T00:07:27.106Z,11.80
2017-12-31T00:09:54.607Z,11.80
2017-12-31T00:12:22.112Z,11.80
2017-12-31T00:14:50.050Z,11.70
2017-12-31T00:17:18.272Z,11.70
2017-12-31T00:19:45.746Z,11.70
2017-12-31T00:22:13.640Z,11.70
2017-12-31T00:24:41.812Z,11.70
2017-12-31T00:27:09.269Z,11.70
2017-12-31T00:29:37.336Z,11.70
2017-12-31T00:32:04.880Z,11.70
2017-12-31T00:34:32.361Z,11.60
2017-12-31T00:37:00.735Z,11.70
2017-12-31T00:39:30.203Z,11.70
2017-12-31T00:41:57.890Z,11.60
2017-12-31T00:44:25.345Z,11.70
2017-12-31T00:46:52.816Z,11.70
2017-12-31T00:49:20.873Z,11.70
2017-12-31T00:51:48.526Z,11.70
2017-12-31T00:54:16.613Z,11.70
2017-12-31T00:56:44.871Z,11.60
2017-12-31T00:59:12.365Z,11.60
2017-12-31T01:01:39.828Z,11.60
2017-12-31T01:04:07.380Z,11.60
2017-12-31T01:06:35.601Z,11.70
2017-12-31T01:09:06.808Z,11.70
2017-12-31T01:11:34.517Z,11.60
2017-12-31T01:14:02.496Z,11.60
2017-12-31T01:16:29.989Z,11.60
2017-12-31T01:18:58.256Z,11.60
2017-12-31T01:21:26.934Z,11.60
2017-12-31T01:23:54.376Z,11.60
2017-12-31T01:26:22.382Z,11.60
2017-12-31T01:28:50.696Z,11.50
2017-12-31T01:31:18.524Z,11.60
2017-12-31T01:33:46.430Z,11.60
2017-12-31T01:36:13.905Z,11.50
2017-12-31T01:38:41.873Z,11.50
2017-12-31T01:41:09.343Z,11.50
2017-12-31T01:43:36.787Z,11.50
2017-12-31T01:46:04.281Z,11.50
2017-12-31T01:48:33.227Z,11.40
2017-12-31T01:51:00.992Z,11.40
2017-12-31T01:53:29.074Z,11.40
2017-12-31T01:55:56.530Z,11.40
2017-12-31T01:58:23.988Z,11.30
2017-12-31T02:00:51.470Z,11.30
2017-12-31T02:03:19.684Z,11.30
2017-12-31T02:05:47.161Z,11.30
2017-12-31T02:08:14.632Z,11.30
2017-12-31T02:10:43.837Z,11.20
2017-12-31T02:13:11.288Z,11.30
2017-12-31T02:15:39.318Z,11.20
2017-12-31T02:18:06.794Z,11.20
2017-12-31T02:20:34.525Z,11.20
2017-12-31T02:23:01.997Z,11.20
2017-12-31T02:25:29.952Z,11.20
2017-12-31T02:27:57.421Z,11.20
2017-12-31T02:30:25.220Z,11.20
2017-12-31T02:32:53.428Z,11.20
2017-12-31T02:35:20.886Z,11.00
2017-12-31T02:37:48.430Z,11.20
2017-12-31T02:40:16.717Z,11.20
2017-12-31T02:42:45.135Z,11.10
2017-12-31T02:45:12.924Z,11.10
2017-12-31T02:47:40.793Z,11.10
2017-12-31T02:50:08.971Z,11.10
2017-12-31T02:52:38.157Z,11.10
2017-12-31T02:55:05.627Z,11.10
2017-12-31T02:57:33.084Z,11.10
2017-12-31T03:00:00.550Z,11.00
2017-12-31T03:02:27.997Z,11.00
2017-12-31T03:04:55.954Z,11.00
2017-12-31T03:07:23.409Z,10.90
2017-12-31T03:09:50.880Z,11.00
2017-12-31T03:12:18.426Z,11.00
2017-12-31T03:14:46.289Z,11.00
2017-12-31T03:17:13.748Z,11.00
2017-12-31T03:19:41.664Z,11.00
2017-12-31T03:22:09.121Z,11.10
2017-12-31T03:24:37.347Z,11.10
2017-12-31T03:27:05.314Z,11.10
2017-12-31T03:29:33.209Z,11.10
2017-12-31T03:32:00.640Z,11.10
2017-12-31T03:34:28.312Z,11.20
2017-12-31T03:36:55.765Z,11.10
2017-12-31T03:39:23.426Z,11.10
2017-12-31T03:41:50.876Z,11.10
2017-12-31T03:44:18.693Z,11.10
2017-12-31T03:46:46.236Z,11.10
2017-12-31T03:49:14.875Z,11.00
2017-12-31T03:51:42.356Z,11.00
2017-12-31T03:54:09.803Z,11.00
2017-12-31T03:56:38.751Z,11.00
2017-12-31T03:59:06.448Z,11.00
2017-12-31T04:01:33.904Z,11.00
2017-12-31T04:04:01.357Z,10.90
2017-12-31T04:06:28.895Z,10.90
2017-12-31T04:08:56.395Z,10.90
2017-12-31T04:11:24.603Z,11.00
2017-12-31T04:13:52.077Z,11.00
2017-12-31T04:16:19.772Z,11.00
2017-12-31T04:18:47.637Z,11.00
2017-12-31T04:21:15.096Z,11.00
2017-12-31T04:23:42.578Z,11.10
2017-12-31T04:26:11.134Z,11.10
2017-12-31T04:28:38.630Z,11.10
2017-12-31T04:31:07.336Z,11.10
2017-12-31T04:33:34.781Z,11.10
2017-12-31T04:36:02.238Z,11.10
2017-12-31T04:38:29.955Z,11.10
2017-12-31T04:40:57.409Z,11.00
2017-12-31T04:43:24.857Z,11.00
2017-12-31T04:45:52.391Z,11.00
2017-12-31T04:48:20.491Z,11.10
2017-12-31T04:50:47.956Z,11.10
2017-12-31T04:53:15.405Z,11.00
2017-12-31T04:55:42.929Z,11.00
2017-12-31T04:58:10.364Z,11.00
2017-12-31T05:00:37.852Z,11.00
2017-12-31T05:03:05.562Z,11.00
2017-12-31T05:05:33.000Z,11.00
2017-12-31T05:08:02.008Z,11.00
2017-12-31T05:10:29.974Z,11.00
2017-12-31T05:12:58.196Z,11.00
2017-12-31T05:15:25.820Z,11.00
2017-12-31T05:17:54.463Z,11.00
2017-12-31T05:20:21.949Z,10.90
2017-12-31T05:22:50.204Z,10.90
2017-12-31T05:25:18.984Z,10.90
2017-12-31T05:27:47.057Z,10.90
2017-12-31T05:30:15.145Z,10.80
2017-12-31T05:32:42.585Z,10.90
2017-12-31T05:35:10.453Z,10.80
2017-12-31T05:37:37.899Z,10.90
2017-12-31T05:40:05.348Z,10.90
2017-12-31T05:42:32.836Z,10.90
2017-12-31T05:45:00.277Z,10.90
2017-12-31T05:47:28.364Z,10.90
2017-12-31T05:49:56.317Z,10.90
2017-12-31T05:52:23.832Z,11.00
2017-12-31T05:54:51.304Z,11.00
2017-12-31T05:57:18.765Z,11.10
2017-12-31T05:59:46.217Z,11.10
2017-12-31T06:02:13.749Z,11.20
2017-12-31T06:04:42.956Z,11.30
2017-12-31T06:07:10.457Z,11.30
2017-12-31T06:09:37.912Z,11.40
2017-12-31T06:12:05.517Z,11.40
2017-12-31T06:14:33.348Z,11.40
2017-12-31T06:17:02.308Z,11.50
2017-12-31T06:19:30.039Z,11.50
2017-12-31T06:21:58.331Z,11.60
2017-12-31T06:24:25.815Z,11.60
2017-12-31T06:26:53.929Z,11.60
2017-12-31T06:29:22.775Z,11.70
2017-12-31T06:31:50.228Z,11.70
2017-12-31T06:34:17.712Z,11.70
2017-12-31T06:36:45.148Z,11.70
2017-12-31T06:39:12.641Z,11.70
2017-12-31T06:41:40.108Z,11.80
2017-12-31T06:44:08.521Z,11.80
2017-12-31T06:46:35.975Z,11.80
2017-12-31T06:49:03.869Z,11.80
2017-12-31T06:51:31.540Z,11.80
2017-12-31T06:53:58.981Z,11.80
2017-12-31T06:56:26.893Z,11.80
2017-12-31T06:58:55.130Z,11.80
2017-12-31T07:01:22.592Z,11.80
2017-12-31T07:03:50.074Z,11.80
2017-12-31T07:06:18.676Z,11.80
2017-12-31T07:08:46.133Z,11.80
2017-12-31T07:11:13.576Z,11.90
2017-12-31T07:13:41.851Z,11.90
2017-12-31T07:16:10.352Z,11.80
2017-12-31T07:18:38.155Z,11.80
2017-12-31T07:21:05.632Z,11.90
2017-12-31T07:23:33.758Z,11.90
2017-12-31T07:26:01.861Z,11.90
2017-12-31T07:28:29.842Z,11.90
2017-12-31T07:30:57.801Z,11.90
2017-12-31T07:33:25.561Z,11.90
2017-12-31T07:35:53.029Z,11.90
2017-12-31T07:38:20.477Z,11.90
2017-12-31T07:40:47.959Z,11.90
2017-12-31T07:43:16.204Z,11.90
2017-12-31T07:45:43.898Z,11.90
2017-12-31T07:48:12.808Z,11.90
2017-12-31T07:50:40.207Z,11.90
2017-12-31T07:53:08.091Z,11.90
2017-12-31T07:55:35.592Z,11.90
2017-12-31T07:58:03.036Z,11.90
2017-12-31T08:00:31.260Z,11.90
2017-12-31T08:02:58.820Z,11.90
2017-12-31T08:05:26.264Z,12.00
2017-12-31T08:07:53.753Z,12.00
2017-12-31T08:10:21.197Z,12.00
2017-12-31T08:12:48.774Z,12.00
2017-12-31T08:15:16.629Z,12.00
2017-12-31T08:17:44.408Z,12.00
2017-12-31T08:20:12.647Z,12.00
2017-12-31T08:22:40.148Z,12.00
2017-12-31T08:25:08.712Z,12.00
2017-12-31T08:27:36.685Z,12.00
2017-12-31T08:30:04.810Z,12.10
2017-12-31T08:32:32.740Z,12.00
2017-12-31T08:35:01.197Z,12.10
2017-12-31T08:37:28.644Z,12.00
2017-12-31T08:39:56.225Z,12.10
2017-12-31T08:42:24.142Z,12.00
2017-12-31T08:44:52.614Z,12.00
2017-12-31T08:47:20.810Z,11.90
2017-12-31T08:49:48.265Z,12.00
2017-12-31T08:52:16.122Z,12.00
2017-12-31T08:54:43.565Z,12.00
2017-12-31T08:57:11.007Z,12.00
2017-12-31T08:59:38.467Z,11.90
2017-12-31T09:02:05.944Z,11.90
2017-12-31T09:04:33.749Z,11.90
2017-12-31T09:07:02.084Z,11.90
2017-12-31T09:09:29.529Z,11.90
2017-12-31T09:11:57.134Z,11.90
2017-12-31T09:14:25.167Z,12.00
2017-12-31T09:16:53.083Z,12.00
2017-12-31T09:19:20.535Z,12.00
2017-12-31T09:21:47.979Z,12.10
2017-12-31T09:24:15.489Z,12.10
2017-12-31T09:26:44.949Z,12.10
2017-12-31T09:29:13.649Z,12.10
2017-12-31T09:31:41.880Z,12.20
2017-12-31T09:34:09.462Z,12.20
2017-12-31T09:36:36.924Z,12.20
2017-12-31T09:39:04.988Z,12.30
2017-12-31T09:41:32.428Z,12.30
2017-12-31T09:43:59.956Z,12.40
2017-12-31T09:46:27.400Z,12.40
2017-12-31T09:48:56.200Z,12.50
2017-12-31T09:51:23.670Z,12.50
2017-12-31T09:53:51.146Z,12.50
2017-12-31T09:56:18.643Z,12.50
2017-12-31T09:58:46.099Z,12.60
2017-12-31T10:01:14.355Z,12.60
2017-12-31T10:03:43.357Z,12.60
2017-12-31T10:06:10.985Z,12.60
2017-12-31T10:08:38.426Z,12.60
2017-12-31T10:11:06.118Z,12.60
2017-12-31T10:13:33.593Z,12.60
2017-12-31T10:16:01.568Z,12.70
2017-12-31T10:18:29.048Z,12.70
2017-12-31T10:20:56.525Z,12.70
2017-12-31T10:23:24.037Z,12.70
2017-12-31T10:25:54.797Z,12.80
2017-12-31T10:28:23.436Z,12.80
2017-12-31T10:30:52.170Z,12.80
2017-12-31T10:33:22.230Z,12.80
2017-12-31T10:35:50.591Z,12.80
2017-12-31T10:38:18.096Z,12.80
2017-12-31T10:40:46.463Z,12.90
2017-12-31T10:43:14.786Z,12.90
2017-12-31T10:45:42.519Z,12.90
2017-12-31T10:48:11.305Z,13.00
2017-12-31T10:50:39.722Z,13.00
2017-12-31T10:53:07.195Z,13.00
2017-12-31T10:55:34.992Z,13.00
2017-12-31T10:58:02.464Z,13.10
2017-12-31T11:00:36.543Z,13.20
2017-12-31T11:03:04.082Z,13.20
2017-12-31T11:05:31.628Z,13.30
2017-12-31T11:07:59.440Z,13.30
2017-12-31T11:10:26.885Z,13.40
2017-12-31T11:12:54.347Z,13.40
2017-12-31T11:15:22.327Z,13.50
2017-12-31T11:17:50.651Z,13.50
2017-12-31T11:20:18.326Z,13.50
2017-12-31T11:22:45.780Z,13.50
2017-12-31T11:25:13.734Z,13.50
2017-12-31T11:27:41.764Z,13.50
2017-12-31T11:30:10.546Z,13.50
2017-12-31T11:32:38.154Z,13.50
2017-12-31T11:35:05.738Z,13.50
2017-12-31T11:37:33.227Z,13.50
2017-12-31T11:40:00.873Z,13.50
2017-12-31T11:42:29.460Z,13.50
2017-12-31T11:44:57.341Z,13.50
2017-12-31T11:47:25.657Z,13.50
2017-12-31T11:49:53.187Z,13.50
2017-12-31T11:52:20.701Z,13.60
2017-12-31T11:54:48.222Z,13.60
2017-12-31T11:57:15.767Z,13.60
2017-12-31T11:59:43.262Z,13.70
2017-12-31T12:02:10.819Z,13.80
2017-12-31T12:04:40.627Z,13.90
2017-12-31T12:07:09.128Z,14.00
2017-12-31T12:09:36.765Z,14.00
2017-12-31T12:12:04.971Z,14.00
2017-12-31T12:14:33.569Z,14.10
2017-12-31T12:17:02.148Z,14.10
2017-12-31T12:19:31.159Z,14.00
2017-12-31T12:21:59.444Z,14.10
2017-12-31T12:24:27.685Z,14.00
2017-12-31T12:26:55.609Z,14.00
2017-12-31T12:29:23.711Z,14.00
2017-12-31T12:31:51.302Z,14.00
2017-12-31T12:34:18.765Z,14.00
2017-12-31T12:36:46.272Z,14.00
2017-12-31T12:39:13.820Z,14.00
2017-12-31T12:41:41.271Z,14.00
2017-12-31T12:44:08.756Z,14.10
2017-12-31T12:46:36.203Z,14.10
2017-12-31T12:49:04.125Z,14.10
2017-12-31T12:51:32.340Z,14.10
2017-12-31T12:53:59.948Z,14.10
2017-12-31T12:56:27.433Z,14.20
2017-12-31T12:58:55.051Z,14.10
2017-12-31T13:01:22.593Z,14.10
2017-12-31T13:03:50.081Z,14.20
2017-12-31T13:06:17.529Z,14.20
2017-12-31T13:08:45.657Z,14.20
2017-12-31T13:11:13.731Z,14.20
2017-12-31T13:13:41.568Z,14.20
2017-12-31T13:16:10.337Z,14.20
2017-12-31T13:18:38.588Z,14.20
2017-12-31T13:21:06.092Z,14.20
2017-12-31T13:23:34.329Z,14.20
2017-12-31T13:26:02.014Z,14.20
2017-12-31T13:28:30.635Z,14.20
2017-12-31T13:30:58.655Z,14.20
2017-12-31T13:33:26.123Z,14.20
2017-12-31T13:35:54.495Z,14.20
2017-12-31T13:38:22.705Z,14.20
2017-12-31T13:40:50.273Z,14.20
2017-12-31T13:43:18.201Z,14.20
2017-12-31T13:45:45.678Z,14.20
2017-12-31T13:48:14.223Z,14.20
2017-12-31T13:50:41.684Z,14.20
2017-12-31T13:53:09.120Z,14.20
2017-12-31T13:55:36.622Z,14.20
2017-12-31T13:58:05.382Z,14.20
2017-12-31T14:00:32.913Z,14.20
2017-12-31T14:03:00.401Z,14.20
2017-12-31T14:05:27.899Z,14.20
2017-12-31T14:07:55.368Z,14.20
2017-12-31T14:10:22.828Z,14.20
2017-12-31T14:12:50.719Z,14.20
2017-12-31T14:15:18.502Z,14.20
2017-12-31T14:17:46.754Z,14.20
2017-12-31T14:20:14.242Z,14.10
2017-12-31T14:22:42.518Z,14.20
2017-12-31T14:25:11.016Z,14.20
2017-12-31T14:27:38.480Z,14.20
2017-12-31T14:30:07.196Z,14.20
2017-12-31T14:32:34.661Z,14.20
2017-12-31T14:35:02.154Z,14.20
2017-12-31T14:37:30.422Z,14.20
2017-12-31T14:39:57.887Z,14.20
2017-12-31T14:42:25.365Z,14.20
2017-12-31T14:44:53.812Z,14.20
2017-12-31T14:47:21.785Z,14.20
2017-12-31T14:49:49.248Z,14.20
2017-12-31T14:52:18.032Z,14.20
2017-12-31T14:54:45.481Z,14.20
2017-12-31T14:57:13.544Z,14.20
2017-12-31T14:59:40.987Z,14.10
2017-12-31T15:02:08.660Z,14.10
2017-12-31T15:04:36.138Z,14.10
2017-12-31T15:07:03.589Z,14.10
2017-12-31T15:09:31.095Z,14.00
2017-12-31T15:11:59.559Z,14.00
2017-12-31T15:14:28.070Z,14.10
2017-12-31T15:16:55.595Z,14.10
2017-12-31T15:19:23.908Z,14.00
2017-12-31T15:21:51.376Z,14.00
2017-12-31T15:24:19.085Z,14.00
2017-12-31T15:26:47.621Z,13.80
2017-12-31T15:29:18.923Z,13.80
2017-12-31T15:31:47.327Z,13.80
2017-12-31T15:34:15.370Z,13.80
2017-12-31T15:36:42.886Z,13.70
2017-12-31T15:39:10.361Z,13.70
2017-12-31T15:41:39.103Z,13.70
2017-12-31T15:44:07.223Z,13.70
2017-12-31T15:46:35.465Z,13.70
2017-12-31T15:49:03.754Z,13.60
2017-12-31T15:51:31.209Z,13.60
2017-12-31T15:53:58.707Z,13.50
2017-12-31T15:56:26.183Z,13.50
2017-12-31T15:58:53.666Z,13.50
2017-12-31T16:01:21.145Z,13.40
2017-12-31T16:03:48.915Z,13.30
2017-12-31T16:06:16.382Z,13.30
2017-12-31T16:08:44.645Z,13.20
2017-12-31T16:11:12.740Z,13.20
2017-12-31T16:13:41.151Z,13.10
2017-12-31T16:16:08.981Z,13.10
2017-12-31T16:18:36.510Z,13.00
2017-12-31T16:21:04.091Z,13.00
2017-12-31T16:23:32.383Z,12.90
2017-12-31T16:26:00.268Z,12.80
2017-12-31T16:28:28.618Z,12.80
2017-12-31T16:30:57.360Z,12.80
2017-12-31T16:33:24.834Z,12.80
2017-12-31T16:35:52.936Z,12.70
2017-12-31T16:38:20.421Z,12.70
2017-12-31T16:40:48.520Z,12.70
2017-12-31T16:43:16.000Z,12.60
2017-12-31T16:45:44.488Z,12.60
2017-12-31T16:48:13.104Z,12.60
2017-12-31T16:50:40.610Z,12.60
2017-12-31T16:53:08.085Z,12.60
2017-12-31T16:55:36.336Z,12.60
2017-12-31T16:58:04.008Z,12.60
2017-12-31T17:00:31.469Z,12.60
2017-12-31T17:02:59.948Z,12.70
2017-12-31T17:05:27.422Z,12.70
2017-12-31T17:07:55.685Z,12.80
2017-12-31T17:10:23.850Z,12.80
2017-12-31T17:12:51.332Z,12.80
2017-12-31T17:15:20.010Z,12.80
2017-12-31T17:17:48.299Z,12.80
2017-12-31T17:20:15.757Z,12.80
2017-12-31T17:22:43.251Z,12.70
2017-12-31T17:25:11.352Z,12.70
2017-12-31T17:27:39.627Z,12.70
2017-12-31T17:30:07.496Z,12.70
2017-12-31T17:32:35.583Z,12.70
2017-12-31T17:35:03.811Z,12.70
2017-12-31T17:37:31.349Z,12.70
2017-12-31T17:39:58.847Z,12.70
2017-12-31T17:42:26.903Z,12.60
2017-12-31T17:44:54.397Z,12.60
2017-12-31T17:47:23.195Z,12.50
2017-12-31T17:49:52.070Z,12.50
2017-12-31T17:52:19.501Z,12.50
2017-12-31T17:54:46.954Z,12.50
2017-12-31T17:57:14.445Z,12.50
2017-12-31T17:59:42.676Z,12.40
2017-12-31T18:02:10.148Z,12.40
2017-12-31T18:04:37.588Z,12.40
2017-12-31T18:07:05.264Z,12.30
2017-12-31T18:09:33.433Z,12.30
2017-12-31T18:12:00.880Z,12.20
2017-12-31T18:14:28.971Z,12.20
2017-12-31T18:16:56.418Z,12.20
2017-12-31T18:19:23.893Z,12.20
2017-12-31T18:21:53.410Z,12.10
2017-12-31T18:24:21.665Z,12.10
2017-12-31T18:26:49.595Z,12.10
2017-12-31T18:29:18.411Z,12.20
2017-12-31T18:31:46.297Z,12.20
2017-12-31T18:34:14.615Z,12.20
2017-12-31T18:36:42.071Z,12.10
2017-12-31T18:39:09.661Z,12.20
2017-12-31T18:41:37.107Z,12.10
2017-12-31T18:44:04.851Z,12.10
2017-12-31T18:46:32.294Z,12.10
2017-12-31T18:49:00.349Z,12.10
2017-12-31T18:51:28.562Z,12.00
2017-12-31T18:53:56.063Z,12.00
2017-12-31T18:56:23.504Z,11.90
2017-12-31T18:58:51.749Z,11.90
2017-12-31T19:01:19.259Z,11.90
2017-12-31T19:03:47.545Z,11.90
2017-12-31T19:06:15.822Z,11.90
2017-12-31T19:08:44.534Z,11.90
2017-12-31T19:11:12.016Z,11.90
2017-12-31T19:13:39.464Z,11.90
2017-12-31T19:16:07.239Z,11.90
2017-12-31T19:18:34.715Z,11.90
2017-12-31T19:21:02.172Z,11.90
2017-12-31T19:23:29.682Z,11.90
2017-12-31T19:25:57.579Z,11.90
2017-12-31T19:28:25.040Z,12.00
2017-12-31T19:30:53.049Z,12.00
2017-12-31T19:33:21.295Z,12.10
2017-12-31T19:35:48.773Z,12.10
2017-12-31T19:38:16.985Z,12.10
2017-12-31T19:40:44.482Z,12.10
2017-12-31T19:43:12.243Z,12.10
2017-12-31T19:45:39.744Z,12.10
2017-12-31T19:48:07.682Z,12.10
2017-12-31T19:50:35.535Z,12.10
2017-12-31T19:53:02.992Z,12.00
2017-12-31T19:55:30.458Z,11.90
2017-12-31T19:57:57.912Z,11.80
2017-12-31T20:00:25.524Z,11.70
2017-12-31T20:02:52.960Z,11.70
2017-12-31T20:05:20.682Z,11.60
2017-12-31T20:07:48.132Z,11.50
2017-12-31T20:10:16.004Z,11.40
2017-12-31T20:12:43.452Z,11.40
2017-12-31T20:15:11.277Z,11.30
2017-12-31T20:17:38.725Z,11.20
2017-12-31T20:20:06.190Z,11.20
2017-12-31T20:22:33.639Z,11.20
2017-12-31T20:25:01.219Z,11.10
2017-12-31T20:27:28.673Z,11.10
2017-12-31T20:29:56.524Z,11.00
2017-12-31T20:32:24.240Z,11.00
2017-12-31T20:34:52.457Z,11.00
2017-12-31T20:37:19.932Z,11.00
2017-12-31T20:39:47.387Z,11.00
2017-12-31T20:42:14.943Z,11.00
2017-12-31T20:44:42.400Z,11.00
2017-12-31T20:47:10.715Z,11.00
2017-12-31T20:49:38.148Z,11.00
2017-12-31T20:52:06.187Z,11.00
2017-12-31T20:54:33.630Z,11.10
2017-12-31T20:57:02.000Z,11.10
2017-12-31T20:59:30.876Z,11.10
2017-12-31T21:01:58.357Z,11.10
2017-12-31T21:04:26.597Z,11.00
2017-12-31T21:06:54.055Z,11.00
2017-12-31T21:09:22.025Z,11.00
2017-12-31T21:11:49.501Z,11.00
2017-12-31T21:14:18.363Z,10.90
2017-12-31T21:16:46.255Z,10.90
2017-12-31T21:19:13.699Z,10.90
2017-12-31T21:21:41.165Z,10.90
2017-12-31T21:24:08.603Z,10.90
2017-12-31T21:26:36.370Z,10.90
2017-12-31T21:29:03.856Z,11.00
2017-12-31T21:31:32.432Z,11.00
2017-12-31T21:34:00.645Z,11.00
2017-12-31T21:36:28.112Z,11.00
2017-12-31T21:41:37.700Z,10.90
2017-12-31T21:44:05.235Z,11.00
2017-12-31T21:46:32.680Z,11.00
2017-12-31T21:49:00.635Z,11.00
2017-12-31T21:51:28.096Z,11.10
2017-12-31T21:53:55.547Z,11.00
2017-12-31T21:56:23.365Z,11.00
2017-12-31T21:58:50.806Z,11.00
2017-12-31T22:01:18.292Z,11.00
2017-12-31T22:03:46.602Z,10.90
2017-12-31T22:06:14.166Z,10.90
2017-12-31T22:08:41.614Z,10.90
2017-12-31T22:11:09.409Z,10.80
2017-12-31T22:13:36.898Z,10.80
2017-12-31T22:16:04.662Z,10.80
2017-12-31T22:18:33.628Z,10.70
2017-12-31T22:21:01.076Z,10.70
2017-12-31T22:23:28.536Z,10.70
2017-12-31T22:25:56.336Z,10.70
2017-12-31T22:28:24.576Z,10.80
2017-12-31T22:30:52.576Z,10.70
2017-12-31T22:33:20.741Z,10.80
2017-12-31T22:35:48.604Z,10.70
2017-12-31T22:38:16.059Z,10.70
2017-12-31T22:40:43.826Z,10.60
2017-12-31T22:43:11.268Z,10.60
2017-12-31T22:45:38.736Z,10.60
2017-12-31T22:48:06.613Z,10.60
2017-12-31T22:50:34.659Z,10.60
2017-12-31T22:53:02.126Z,10.60
2017-12-31T22:55:29.970Z,10.60
2017-12-31T22:57:57.569Z,10.60
2017-12-31T23:00:25.235Z,10.50
2017-12-31T23:02:53.904Z,10.40
2017-12-31T23:05:21.382Z,10.40
2017-12-31T23:07:49.632Z,10.40
2017-12-31T23:10:18.892Z,10.40
2017-12-31T23:12:46.339Z,10.40
2017-12-31T23:15:14.146Z,10.40
2017-12-31T23:17:41.632Z,10.40
2017-12-31T23:20:09.853Z,10.40
2017-12-31T23:22:37.356Z,10.40
2017-12-31T23:25:05.524Z,10.40
2017-12-31T23:27:33.732Z,10.30
2017-12-31T23:30:02.982Z,10.30
2017-12-31T23:32:30.953Z,10.40
2017-12-31T23:34:58.456Z,10.40
2017-12-31T23:37:26.293Z,10.30
2017-12-31T23:39:55.362Z,10.30
2017-12-31T23:42:22.805Z,10.30
2017-12-31T23:44:50.388Z,10.30
2017-12-31T23:47:18.272Z,10.30
2017-12-31T23:49:46.507Z,10.30
2017-12-31T23:52:14.268Z,10.30
2017-12-31T23:54:41.721Z,10.30
2017-12-31T23:57:09.188Z,10.30
2017-12-31T23:59:36.817Z,10.30
